createdAt,value
2023-02-02T00:00:23.567Z,14.50
2023-02-02T00:05:26.232Z,14.07
2023-02-02T00:10:29.221Z,14.43
2023-02-02T00:15:34.545Z,12.25
2023-02-02T00:20:37.223Z,12.30
2023-02-02T00:25:39.787Z,12.48
2023-02-02T00:30:42.408Z,11.50
2023-02-02T00:35:45.072Z,12.10
2023-02-02T00:40:47.657Z,11.48
2023-02-02T00:45:50.365Z,11.57
2023-02-02T00:50:53.667Z,12.55
2023-02-02T00:55:56.225Z,13.88
2023-02-02T01:00:58.946Z,13.45
2023-02-02T01:06:01.495Z,13.60
2023-02-02T01:11:04.283Z,13.88
2023-02-02T01:16:07.580Z,13.18
2023-02-02T01:21:11.744Z,14.38
2023-02-02T01:26:15.190Z,13.40
2023-02-02T01:31:19.569Z,13.20
2023-02-02T01:36:24.215Z,13.63
2023-02-02T01:41:27.899Z,14.02
2023-02-02T01:46:37.427Z,13.35
2023-02-02T01:51:48.949Z,13.02
2023-02-02T01:56:58.003Z,14.40
2023-02-02T02:02:02.677Z,13.65
2023-02-02T02:07:06.368Z,14.63
2023-02-02T02:12:14.523Z,13.32
2023-02-02T02:17:40.755Z,14.15
2023-02-02T02:23:27.203Z,13.52
2023-02-02T02:28:48.323Z,13.68
2023-02-02T02:34:14.195Z,12.83
2023-02-02T02:39:35.181Z,11.73
2023-02-02T02:44:37.826Z,13.17
2023-02-02T02:49:45.867Z,13.65
2023-02-02T02:54:54.922Z,13.25
2023-02-02T03:00:24.627Z,12.68
2023-02-02T03:05:37.127Z,12.88
2023-02-02T03:10:42.762Z,13.07
2023-02-02T03:15:46.494Z,14.65
2023-02-02T03:20:49.081Z,13.30
2023-02-02T03:25:51.922Z,14.07
2023-02-02T03:30:55.346Z,13.27
2023-02-02T03:35:57.996Z,12.80
2023-02-02T03:41:00.693Z,12.10
2023-02-02T03:46:05.675Z,12.07
2023-02-02T03:51:11.775Z,12.13
2023-02-02T03:56:15.315Z,12.40
2023-02-02T04:01:18.096Z,13.23
2023-02-02T04:06:20.854Z,12.18
2023-02-02T04:11:23.451Z,13.02
2023-02-02T04:16:26.186Z,12.18
2023-02-02T04:21:28.749Z,12.35
2023-02-02T04:26:31.407Z,12.73
2023-02-02T04:31:34.056Z,12.82
2023-02-02T04:36:36.759Z,12.93
2023-02-02T04:41:39.377Z,14.00
2023-02-02T04:46:43.449Z,12.77
2023-02-02T04:51:46.151Z,14.13
2023-02-02T04:56:48.829Z,13.38
2023-02-02T05:01:51.489Z,12.88
2023-02-02T05:06:54.223Z,13.88
2023-02-02T05:11:56.761Z,14.05
2023-02-02T05:16:59.517Z,13.18
2023-02-02T05:22:02.148Z,14.82
2023-02-02T05:27:04.867Z,15.57
2023-02-02T05:32:07.509Z,14.88
2023-02-02T05:37:10.147Z,15.30
2023-02-02T05:42:12.680Z,15.38
2023-02-02T05:47:15.292Z,14.77
2023-02-02T05:52:22.500Z,14.25
2023-02-02T05:57:25.021Z,15.40
2023-02-02T06:02:27.606Z,15.25
2023-02-02T06:07:30.204Z,15.73
2023-02-02T06:12:32.778Z,14.50
2023-02-02T06:17:35.411Z,16.15
2023-02-02T06:22:38.114Z,15.10
2023-02-02T06:27:40.737Z,15.93
2023-02-02T06:32:43.348Z,15.75
2023-02-02T06:37:45.943Z,15.85
2023-02-02T06:42:48.487Z,14.95
2023-02-02T06:47:51.596Z,15.07
2023-02-02T06:52:54.268Z,14.48
2023-02-02T06:58:01.462Z,14.07
2023-02-02T07:03:04.465Z,14.30
2023-02-02T07:08:07.314Z,15.90
2023-02-02T07:13:10.148Z,15.80
2023-02-02T07:18:12.657Z,15.32
2023-02-02T07:23:15.201Z,16.27
2023-02-02T07:28:17.716Z,16.02
2023-02-02T07:33:20.280Z,15.73
2023-02-02T07:38:22.785Z,14.73
2023-02-02T07:43:25.336Z,13.98
2023-02-02T07:48:31.584Z,14.70
2023-02-02T07:53:35.179Z,14.73
2023-02-02T07:58:38.279Z,14.43
2023-02-02T08:03:42.951Z,15.02
2023-02-02T08:08:46.740Z,14.40
2023-02-02T08:13:51.749Z,15.30
2023-02-02T08:18:54.318Z,15.90
2023-02-02T08:23:57.145Z,15.27
2023-02-02T08:29:02.803Z,15.25
2023-02-02T08:34:05.988Z,13.70
2023-02-02T08:39:12.173Z,13.32
2023-02-02T08:44:16.481Z,12.85
2023-02-02T08:49:19.407Z,15.20
2023-02-02T08:54:22.128Z,14.32
2023-02-02T08:59:25.037Z,15.18
2023-02-02T09:04:27.658Z,13.77
2023-02-02T09:09:30.879Z,13.95
2023-02-02T09:14:34.123Z,13.43
2023-02-02T09:19:36.833Z,13.98
2023-02-02T09:24:39.379Z,15.10
2023-02-02T09:29:42.013Z,13.63
2023-02-02T09:34:44.799Z,15.23
2023-02-02T09:39:47.548Z,14.32
2023-02-02T09:44:59.718Z,15.23
2023-02-02T09:50:28.440Z,14.30
2023-02-02T09:55:37.130Z,13.93
2023-02-02T10:00:48.560Z,14.85
2023-02-02T10:06:35.628Z,14.57
2023-02-02T10:12:00.457Z,13.95
2023-02-02T10:17:26.143Z,13.43
2023-02-02T10:22:33.245Z,15.90
2023-02-02T10:27:39.479Z,16.05
2023-02-02T10:33:00.978Z,16.30
2023-02-02T10:38:32.445Z,15.50
2023-02-02T10:43:46.832Z,15.83
2023-02-02T10:48:50.724Z,16.02
2023-02-02T10:53:55.378Z,15.85
2023-02-02T10:59:01.328Z,15.95
2023-02-02T11:04:22.544Z,16.23
2023-02-02T11:09:31.435Z,15.90
2023-02-02T11:14:45.076Z,14.73
2023-02-02T11:19:50.033Z,16.02
2023-02-02T11:24:53.969Z,14.65
2023-02-02T11:29:59.493Z,14.48
2023-02-02T11:35:01.983Z,14.52
2023-02-02T11:40:18.092Z,14.23
2023-02-02T11:45:37.269Z,15.00
2023-02-02T11:50:47.559Z,14.00
2023-02-02T11:55:50.910Z,13.90
2023-02-02T12:00:57.344Z,15.68
2023-02-02T12:06:02.324Z,14.30
2023-02-02T12:11:07.292Z,14.27
2023-02-02T12:16:15.817Z,13.82
2023-02-02T12:21:38.667Z,13.70
2023-02-02T12:26:50.388Z,12.10
2023-02-02T12:32:18.094Z,12.02
2023-02-02T12:37:24.741Z,12.45
2023-02-02T12:43:00.568Z,12.32
2023-02-02T12:48:12.463Z,11.35
2023-02-02T12:53:20.984Z,12.45
2023-02-02T12:58:58.673Z,13.38
2023-02-02T13:04:14.088Z,12.85
2023-02-02T13:09:29.869Z,14.10
2023-02-02T13:14:38.343Z,13.68
2023-02-02T13:19:44.892Z,13.85
2023-02-02T13:24:50.209Z,15.13
2023-02-02T13:30:25.606Z,15.32
2023-02-02T13:35:45.745Z,14.85
2023-02-02T13:40:50.174Z,13.73
2023-02-02T13:46:12.438Z,14.05
2023-02-02T13:51:33.880Z,15.25
2023-02-02T13:56:56.741Z,15.13
2023-02-02T14:02:00.120Z,14.68
2023-02-02T14:07:05.738Z,15.55
2023-02-02T14:12:11.233Z,14.10
2023-02-02T14:17:13.712Z,15.05
2023-02-02T14:22:54.828Z,15.80
2023-02-02T14:28:02.383Z,15.55
2023-02-02T14:33:27.471Z,16.58
2023-02-02T14:38:36.479Z,15.93
2023-02-02T14:43:49.880Z,17.27
2023-02-02T14:48:57.251Z,19.02
2023-02-02T14:54:02.615Z,19.27
2023-02-02T14:59:07.606Z,19.20
2023-02-02T15:04:30.281Z,18.85
2023-02-02T15:09:39.411Z,19.35
2023-02-02T15:15:14.410Z,19.98
2023-02-02T15:20:40.402Z,18.42
2023-02-02T15:25:59.650Z,19.58
2023-02-02T15:31:09.070Z,19.55
2023-02-02T15:36:18.767Z,19.38
2023-02-02T15:41:45.264Z,19.58
2023-02-02T15:46:49.013Z,19.33
2023-02-02T15:51:58.175Z,19.25
2023-02-02T15:57:02.950Z,19.50
2023-02-02T16:02:11.711Z,17.98
2023-02-02T16:07:19.951Z,18.00
2023-02-02T16:12:23.793Z,18.05
2023-02-02T16:17:32.811Z,18.25
2023-02-02T16:22:38.081Z,17.50
2023-02-02T16:27:46.247Z,17.48
2023-02-02T16:32:48.896Z,17.23
2023-02-02T16:37:51.460Z,18.73
2023-02-02T16:43:15.662Z,16.27
2023-02-02T16:48:45.089Z,19.13
2023-02-02T16:53:59.333Z,16.70
2023-02-02T16:59:15.364Z,17.67
2023-02-02T17:04:36.938Z,17.73
2023-02-02T17:09:41.258Z,17.33
2023-02-02T17:14:54.321Z,16.48
2023-02-02T17:19:56.987Z,18.70
2023-02-02T17:25:00.171Z,18.98
2023-02-02T17:30:04.758Z,17.98
2023-02-02T17:35:15.201Z,17.63
2023-02-02T17:40:19.884Z,16.02
2023-02-02T17:45:34.099Z,16.42
2023-02-02T17:50:37.432Z,16.00
2023-02-02T17:55:42.615Z,16.85
2023-02-02T18:00:54.048Z,16.13
2023-02-02T18:06:02.600Z,11.98
2023-02-02T18:11:05.391Z,16.25
2023-02-02T18:16:11.503Z,15.85
2023-02-02T18:21:14.337Z,16.92
2023-02-02T18:26:20.531Z,15.90
2023-02-02T18:31:26.924Z,16.00
2023-02-02T18:36:34.064Z,16.88
2023-02-02T18:41:38.920Z,17.30
2023-02-02T18:46:41.885Z,17.15
2023-02-02T18:51:44.702Z,17.73
2023-02-02T18:56:47.455Z,18.58
2023-02-02T19:01:50.140Z,18.77
2023-02-02T19:07:12.080Z,17.95
2023-02-02T19:12:15.577Z,17.23
2023-02-02T19:17:22.522Z,16.70
2023-02-02T19:22:30.600Z,18.40
2023-02-02T19:27:36.279Z,17.65
2023-02-02T19:32:39.817Z,18.00
2023-02-02T19:37:43.406Z,16.88
2023-02-02T19:42:57.684Z,18.02
2023-02-02T19:48:06.828Z,19.20
2023-02-02T19:53:21.537Z,18.27
2023-02-02T19:58:29.665Z,19.17
2023-02-02T20:03:43.034Z,20.13
2023-02-02T20:08:46.716Z,18.25
2023-02-02T20:13:51.095Z,21.58
2023-02-02T20:18:56.752Z,20.30
2023-02-02T20:23:59.517Z,22.92
2023-02-02T20:29:23.629Z,21.77
2023-02-02T20:34:32.921Z,21.63
2023-02-02T20:39:39.844Z,20.83
2023-02-02T20:44:42.830Z,21.50
2023-02-02T20:49:45.815Z,21.63
2023-02-02T20:54:48.988Z,22.50
2023-02-02T20:59:57.540Z,21.48
2023-02-02T21:05:01.482Z,21.13
2023-02-02T21:10:06.883Z,20.65
2023-02-02T21:15:10.195Z,22.67
2023-02-02T21:20:15.068Z,21.83
2023-02-02T21:25:17.737Z,21.92
2023-02-02T21:30:20.359Z,19.95
2023-02-02T21:35:24.804Z,22.52
2023-02-02T21:40:32.956Z,21.67
2023-02-02T21:45:37.780Z,21.58
2023-02-02T21:50:41.753Z,21.15
2023-02-02T21:55:46.097Z,21.30
2023-02-02T22:00:50.153Z,21.42
2023-02-02T22:05:59.935Z,21.65
2023-02-02T22:11:02.881Z,21.83
2023-02-02T22:16:17.742Z,22.63
2023-02-02T22:21:21.217Z,23.20
2023-02-02T22:26:34.192Z,21.45
2023-02-02T22:31:36.820Z,21.75
2023-02-02T22:36:39.517Z,21.38
2023-02-02T22:41:42.345Z,22.25
2023-02-02T22:46:45.005Z,21.52
2023-02-02T22:51:47.644Z,21.15
2023-02-02T22:56:50.218Z,21.95
2023-02-02T23:01:52.743Z,21.27
2023-02-02T23:06:55.289Z,21.88
2023-02-02T23:11:57.883Z,20.58
2023-02-02T23:17:00.425Z,21.88
2023-02-02T23:22:03.134Z,21.33
2023-02-02T23:27:05.825Z,23.05
2023-02-02T23:32:08.473Z,22.38
2023-02-02T23:37:11.430Z,21.10
2023-02-02T23:42:14.134Z,20.77
2023-02-02T23:47:16.903Z,21.58
2023-02-02T23:52:19.571Z,22.42
2023-02-02T23:57:22.234Z,21.13
